sensor_id;sensor_type;location;lat;lon;timestamp;temperature;humidity
21502;DHT22;27639;48.674;9.242;2022-10-30T00:00:47;17.80;64.90
21502;DHT22;27639;48.674;9.242;2022-10-30T00:03:14;17.80;64.90
21502;DHT22;27639;48.674;9.242;2022-10-30T00:05:41;17.80;64.90
21502;DHT22;27639;48.674;9.242;2022-10-30T00:08:09;17.80;65.00
21502;DHT22;27639;48.674;9.242;2022-10-30T00:10:35;17.90;65.10
21502;DHT22;27639;48.674;9.242;2022-10-30T00:13:01;17.80;64.70
21502;DHT22;27639;48.674;9.242;2022-10-30T00:15:26;17.80;64.60
21502;DHT22;27639;48.674;9.242;2022-10-30T00:17:52;17.90;64.60
21502;DHT22;27639;48.674;9.242;2022-10-30T00:20:18;17.90;64.60
21502;DHT22;27639;48.674;9.242;2022-10-30T00:22:43;17.90;64.60
21502;DHT22;27639;48.674;9.242;2022-10-30T00:25:09;17.90;64.60
21502;DHT22;27639;48.674;9.242;2022-10-30T00:27:34;17.80;64.70
21502;DHT22;27639;48.674;9.242;2022-10-30T00:30:00;17.80;64.70
21502;DHT22;27639;48.674;9.242;2022-10-30T00:32:26;17.70;64.60
21502;DHT22;27639;48.674;9.242;2022-10-30T00:34:52;17.60;64.60
21502;DHT22;27639;48.674;9.242;2022-10-30T00:37:17;17.60;64.70
21502;DHT22;27639;48.674;9.242;2022-10-30T00:39:43;17.60;64.70
21502;DHT22;27639;48.674;9.242;2022-10-30T00:42:13;17.60;64.70
21502;DHT22;27639;48.674;9.242;2022-10-30T00:47:22;17.50;64.60
21502;DHT22;27639;48.674;9.242;2022-10-30T00:52:24;17.50;65.00
21502;DHT22;27639;48.674;9.242;2022-10-30T00:54:52;17.50;65.10
21502;DHT22;27639;48.674;9.242;2022-10-30T00:57:19;17.40;65.00
21502;DHT22;27639;48.674;9.242;2022-10-30T00:59:45;17.50;64.90
21502;DHT22;27639;48.674;9.242;2022-10-30T01:02:11;17.50;65.00
21502;DHT22;27639;48.674;9.242;2022-10-30T01:04:38;17.50;65.00
21502;DHT22;27639;48.674;9.242;2022-10-30T01:07:12;17.50;65.00
21502;DHT22;27639;48.674;9.242;2022-10-30T01:09:39;17.40;64.80
21502;DHT22;27639;48.674;9.242;2022-10-30T01:12:06;17.40;65.00
21502;DHT22;27639;48.674;9.242;2022-10-30T01:14:34;17.30;65.10
21502;DHT22;27639;48.674;9.242;2022-10-30T01:31:19;17.10;65.60
21502;DHT22;27639;48.674;9.242;2022-10-30T01:39:01;17.00;65.50
21502;DHT22;27639;48.674;9.242;2022-10-30T01:41:28;17.10;65.50
21502;DHT22;27639;48.674;9.242;2022-10-30T01:43:56;17.00;65.80
21502;DHT22;27639;48.674;9.242;2022-10-30T01:49:52;17.00;65.70
21502;DHT22;27639;48.674;9.242;2022-10-30T01:55:03;17.00;65.90
21502;DHT22;27639;48.674;9.242;2022-10-30T02:02:31;17.10;65.90
21502;DHT22;27639;48.674;9.242;2022-10-30T02:04:58;17.10;65.90
21502;DHT22;27639;48.674;9.242;2022-10-30T02:07:24;17.10;65.90
21502;DHT22;27639;48.674;9.242;2022-10-30T02:09:51;17.10;65.90
21502;DHT22;27639;48.674;9.242;2022-10-30T02:12:18;17.10;65.70
21502;DHT22;27639;48.674;9.242;2022-10-30T02:14:47;17.10;65.60
21502;DHT22;27639;48.674;9.242;2022-10-30T02:17:15;17.10;65.60
21502;DHT22;27639;48.674;9.242;2022-10-30T02:19:42;17.00;65.60
21502;DHT22;27639;48.674;9.242;2022-10-30T02:22:07;17.00;65.90
21502;DHT22;27639;48.674;9.242;2022-10-30T02:24:33;17.00;66.00
21502;DHT22;27639;48.674;9.242;2022-10-30T02:26:59;17.00;66.00
21502;DHT22;27639;48.674;9.242;2022-10-30T02:29:25;16.90;66.10
21502;DHT22;27639;48.674;9.242;2022-10-30T02:31:51;16.90;66.10
21502;DHT22;27639;48.674;9.242;2022-10-30T02:34:16;16.90;66.00
21502;DHT22;27639;48.674;9.242;2022-10-30T02:36:42;16.90;66.10
21502;DHT22;27639;48.674;9.242;2022-10-30T02:39:08;16.90;66.00
21502;DHT22;27639;48.674;9.242;2022-10-30T02:41:33;16.90;65.90
21502;DHT22;27639;48.674;9.242;2022-10-30T02:43:59;17.00;66.00
21502;DHT22;27639;48.674;9.242;2022-10-30T02:46:24;17.00;65.90
21502;DHT22;27639;48.674;9.242;2022-10-30T02:48:50;17.00;65.90
21502;DHT22;27639;48.674;9.242;2022-10-30T02:51:16;17.00;66.00
21502;DHT22;27639;48.674;9.242;2022-10-30T02:53:42;16.90;65.90
21502;DHT22;27639;48.674;9.242;2022-10-30T02:56:12;16.90;65.80
21502;DHT22;27639;48.674;9.242;2022-10-30T02:58:38;16.90;65.90
21502;DHT22;27639;48.674;9.242;2022-10-30T03:01:12;16.90;65.90
21502;DHT22;27639;48.674;9.242;2022-10-30T03:03:38;16.80;65.70
21502;DHT22;27639;48.674;9.242;2022-10-30T03:06:06;16.80;65.80
21502;DHT22;27639;48.674;9.242;2022-10-30T03:08:32;16.80;65.90
21502;DHT22;27639;48.674;9.242;2022-10-30T03:11:08;16.80;66.00
21502;DHT22;27639;48.674;9.242;2022-10-30T03:13:35;16.80;65.90
21502;DHT22;27639;48.674;9.242;2022-10-30T03:16:07;16.80;65.80
21502;DHT22;27639;48.674;9.242;2022-10-30T03:18:33;16.80;65.70
21502;DHT22;27639;48.674;9.242;2022-10-30T03:21:00;16.80;66.50
21502;DHT22;27639;48.674;9.242;2022-10-30T03:23:26;16.80;65.70
21502;DHT22;27639;48.674;9.242;2022-10-30T03:25:54;16.80;65.70
21502;DHT22;27639;48.674;9.242;2022-10-30T03:28:24;16.70;65.80
21502;DHT22;27639;48.674;9.242;2022-10-30T03:30:51;16.60;65.70
21502;DHT22;27639;48.674;9.242;2022-10-30T03:33:17;16.50;65.90
21502;DHT22;27639;48.674;9.242;2022-10-30T03:35:45;16.50;66.10
21502;DHT22;27639;48.674;9.242;2022-10-30T03:38:12;16.50;66.30
21502;DHT22;27639;48.674;9.242;2022-10-30T03:40:38;16.60;66.50
21502;DHT22;27639;48.674;9.242;2022-10-30T03:43:04;16.60;66.20
21502;DHT22;27639;48.674;9.242;2022-10-30T03:45:31;16.60;66.00
21502;DHT22;27639;48.674;9.242;2022-10-30T03:47:59;16.70;66.10
21502;DHT22;27639;48.674;9.242;2022-10-30T03:50:24;16.70;66.10
21502;DHT22;27639;48.674;9.242;2022-10-30T03:52:52;16.70;66.10
21502;DHT22;27639;48.674;9.242;2022-10-30T03:55:18;16.60;65.90
21502;DHT22;27639;48.674;9.242;2022-10-30T03:57:43;16.60;65.70
21502;DHT22;27639;48.674;9.242;2022-10-30T04:00:10;16.60;65.70
21502;DHT22;27639;48.674;9.242;2022-10-30T04:02:35;16.50;65.90
21502;DHT22;27639;48.674;9.242;2022-10-30T04:05:01;16.50;65.90
21502;DHT22;27639;48.674;9.242;2022-10-30T04:07:27;16.50;65.90
21502;DHT22;27639;48.674;9.242;2022-10-30T04:09:53;16.50;65.90
21502;DHT22;27639;48.674;9.242;2022-10-30T04:12:19;16.50;65.60
21502;DHT22;27639;48.674;9.242;2022-10-30T04:14:44;16.50;65.80
21502;DHT22;27639;48.674;9.242;2022-10-30T04:17:10;16.30;65.60
21502;DHT22;27639;48.674;9.242;2022-10-30T04:19:36;16.30;66.10
21502;DHT22;27639;48.674;9.242;2022-10-30T04:22:01;16.30;66.10
21502;DHT22;27639;48.674;9.242;2022-10-30T04:24:27;16.20;66.00
21502;DHT22;27639;48.674;9.242;2022-10-30T04:26:52;16.20;66.20
21502;DHT22;27639;48.674;9.242;2022-10-30T04:29:18;16.20;66.30
21502;DHT22;27639;48.674;9.242;2022-10-30T04:31:43;16.20;66.30
21502;DHT22;27639;48.674;9.242;2022-10-30T04:34:09;16.20;66.20
21502;DHT22;27639;48.674;9.242;2022-10-30T04:36:36;16.20;66.20
21502;DHT22;27639;48.674;9.242;2022-10-30T04:39:01;16.10;66.20
21502;DHT22;27639;48.674;9.242;2022-10-30T04:41:27;16.10;66.20
21502;DHT22;27639;48.674;9.242;2022-10-30T04:43:53;16.10;66.20
21502;DHT22;27639;48.674;9.242;2022-10-30T04:46:18;16.10;66.20
21502;DHT22;27639;48.674;9.242;2022-10-30T04:48:44;16.10;66.30
21502;DHT22;27639;48.674;9.242;2022-10-30T04:51:10;16.10;66.20
21502;DHT22;27639;48.674;9.242;2022-10-30T04:53:37;16.00;66.10
21502;DHT22;27639;48.674;9.242;2022-10-30T04:56:03;16.10;66.20
21502;DHT22;27639;48.674;9.242;2022-10-30T04:58:29;16.10;66.20
21502;DHT22;27639;48.674;9.242;2022-10-30T05:00:54;16.10;66.10
21502;DHT22;27639;48.674;9.242;2022-10-30T05:03:22;16.00;66.00
21502;DHT22;27639;48.674;9.242;2022-10-30T05:05:58;16.00;66.10
21502;DHT22;27639;48.674;9.242;2022-10-30T05:08:25;16.00;65.90
21502;DHT22;27639;48.674;9.242;2022-10-30T05:10:51;16.00;66.20
21502;DHT22;27639;48.674;9.242;2022-10-30T05:13:17;16.00;65.70
21502;DHT22;27639;48.674;9.242;2022-10-30T05:15:42;16.00;65.80
21502;DHT22;27639;48.674;9.242;2022-10-30T05:18:08;16.00;66.10
21502;DHT22;27639;48.674;9.242;2022-10-30T05:20:34;16.00;66.10
21502;DHT22;27639;48.674;9.242;2022-10-30T05:22:59;15.90;66.00
21502;DHT22;27639;48.674;9.242;2022-10-30T05:25:26;15.80;65.80
21502;DHT22;27639;48.674;9.242;2022-10-30T05:28:03;15.80;65.90
21502;DHT22;27639;48.674;9.242;2022-10-30T05:30:30;15.80;65.90
21502;DHT22;27639;48.674;9.242;2022-10-30T05:33:01;15.80;66.10
21502;DHT22;27639;48.674;9.242;2022-10-30T05:35:28;15.80;65.90
21502;DHT22;27639;48.674;9.242;2022-10-30T05:37:54;15.80;65.90
21502;DHT22;27639;48.674;9.242;2022-10-30T05:40:19;15.80;65.90
21502;DHT22;27639;48.674;9.242;2022-10-30T05:42:48;15.80;65.90
21502;DHT22;27639;48.674;9.242;2022-10-30T05:45:14;15.80;65.60
21502;DHT22;27639;48.674;9.242;2022-10-30T05:47:40;15.80;65.50
21502;DHT22;27639;48.674;9.242;2022-10-30T05:50:07;15.80;65.40
21502;DHT22;27639;48.674;9.242;2022-10-30T05:52:32;15.80;65.50
21502;DHT22;27639;48.674;9.242;2022-10-30T05:54:59;15.80;65.70
21502;DHT22;27639;48.674;9.242;2022-10-30T05:57:28;15.70;65.40
21502;DHT22;27639;48.674;9.242;2022-10-30T05:59:54;15.70;65.40
21502;DHT22;27639;48.674;9.242;2022-10-30T06:02:20;15.70;65.30
21502;DHT22;27639;48.674;9.242;2022-10-30T06:04:46;15.70;65.40
21502;DHT22;27639;48.674;9.242;2022-10-30T06:07:12;15.70;65.20
21502;DHT22;27639;48.674;9.242;2022-10-30T06:09:37;15.70;65.00
21502;DHT22;27639;48.674;9.242;2022-10-30T06:12:03;15.70;65.10
21502;DHT22;27639;48.674;9.242;2022-10-30T06:14:29;15.70;65.10
21502;DHT22;27639;48.674;9.242;2022-10-30T06:16:54;15.70;65.00
21502;DHT22;27639;48.674;9.242;2022-10-30T06:19:20;15.70;65.10
21502;DHT22;27639;48.674;9.242;2022-10-30T06:21:45;15.60;65.00
21502;DHT22;27639;48.674;9.242;2022-10-30T06:24:11;15.60;65.40
21502;DHT22;27639;48.674;9.242;2022-10-30T06:26:37;15.50;65.20
21502;DHT22;27639;48.674;9.242;2022-10-30T06:29:02;15.40;65.50
21502;DHT22;27639;48.674;9.242;2022-10-30T06:31:28;15.40;65.50
21502;DHT22;27639;48.674;9.242;2022-10-30T06:33:53;15.40;65.70
21502;DHT22;27639;48.674;9.242;2022-10-30T06:36:19;15.30;65.80
21502;DHT22;27639;48.674;9.242;2022-10-30T06:38:45;15.40;65.80
21502;DHT22;27639;48.674;9.242;2022-10-30T06:41:10;15.40;65.80
21502;DHT22;27639;48.674;9.242;2022-10-30T06:43:36;15.30;65.70
21502;DHT22;27639;48.674;9.242;2022-10-30T06:46:01;15.40;65.80
21502;DHT22;27639;48.674;9.242;2022-10-30T06:48:27;15.40;65.90
21502;DHT22;27639;48.674;9.242;2022-10-30T06:50:56;15.40;65.60
21502;DHT22;27639;48.674;9.242;2022-10-30T06:53:23;15.50;65.60
21502;DHT22;27639;48.674;9.242;2022-10-30T06:55:59;15.50;65.70
21502;DHT22;27639;48.674;9.242;2022-10-30T06:58:26;15.60;65.90
21502;DHT22;27639;48.674;9.242;2022-10-30T07:00:52;15.50;65.60
21502;DHT22;27639;48.674;9.242;2022-10-30T07:03:18;15.40;65.70
21502;DHT22;27639;48.674;9.242;2022-10-30T07:05:43;15.50;66.00
21502;DHT22;27639;48.674;9.242;2022-10-30T07:08:09;15.50;66.10
21502;DHT22;27639;48.674;9.242;2022-10-30T07:10:35;15.60;66.20
21502;DHT22;27639;48.674;9.242;2022-10-30T07:13:00;15.60;66.20
21502;DHT22;27639;48.674;9.242;2022-10-30T07:15:26;15.60;66.20
21502;DHT22;27639;48.674;9.242;2022-10-30T07:17:59;15.60;66.30
21502;DHT22;27639;48.674;9.242;2022-10-30T07:20:26;15.70;66.10
21502;DHT22;27639;48.674;9.242;2022-10-30T07:22:52;15.70;66.40
21502;DHT22;27639;48.674;9.242;2022-10-30T07:25:18;15.80;66.20
21502;DHT22;27639;48.674;9.242;2022-10-30T07:27:45;15.80;66.10
21502;DHT22;27639;48.674;9.242;2022-10-30T07:30:12;15.80;65.90
21502;DHT22;27639;48.674;9.242;2022-10-30T07:32:38;15.80;65.90
21502;DHT22;27639;48.674;9.242;2022-10-30T07:35:05;15.90;66.10
21502;DHT22;27639;48.674;9.242;2022-10-30T07:37:31;15.90;66.10
21502;DHT22;27639;48.674;9.242;2022-10-30T07:39:56;15.90;66.00
21502;DHT22;27639;48.674;9.242;2022-10-30T07:42:22;15.90;66.00
21502;DHT22;27639;48.674;9.242;2022-10-30T07:44:48;16.00;66.10
21502;DHT22;27639;48.674;9.242;2022-10-30T07:47:13;16.10;66.20
21502;DHT22;27639;48.674;9.242;2022-10-30T07:49:39;16.00;66.00
21502;DHT22;27639;48.674;9.242;2022-10-30T07:52:04;16.00;66.10
21502;DHT22;27639;48.674;9.242;2022-10-30T07:54:30;16.00;66.40
21502;DHT22;27639;48.674;9.242;2022-10-30T07:56:55;16.10;66.30
21502;DHT22;27639;48.674;9.242;2022-10-30T07:59:23;16.10;66.50
21502;DHT22;27639;48.674;9.242;2022-10-30T08:01:49;16.20;66.50
21502;DHT22;27639;48.674;9.242;2022-10-30T08:04:15;16.20;66.40
21502;DHT22;27639;48.674;9.242;2022-10-30T08:06:41;16.30;66.40
21502;DHT22;27639;48.674;9.242;2022-10-30T08:09:07;16.30;66.40
21502;DHT22;27639;48.674;9.242;2022-10-30T08:11:32;16.30;66.30
21502;DHT22;27639;48.674;9.242;2022-10-30T08:13:58;16.40;66.20
21502;DHT22;27639;48.674;9.242;2022-10-30T08:16:24;16.40;66.40
21502;DHT22;27639;48.674;9.242;2022-10-30T08:18:50;16.40;66.50
21502;DHT22;27639;48.674;9.242;2022-10-30T08:21:15;16.50;66.60
21502;DHT22;27639;48.674;9.242;2022-10-30T08:23:41;16.40;66.50
21502;DHT22;27639;48.674;9.242;2022-10-30T08:26:06;16.50;66.80
21502;DHT22;27639;48.674;9.242;2022-10-30T08:28:32;16.60;66.90
21502;DHT22;27639;48.674;9.242;2022-10-30T08:30:59;16.80;67.10
21502;DHT22;27639;48.674;9.242;2022-10-30T08:33:25;17.00;67.10
21502;DHT22;27639;48.674;9.242;2022-10-30T08:35:55;17.10;66.60
21502;DHT22;27639;48.674;9.242;2022-10-30T08:38:24;17.30;66.70
21502;DHT22;27639;48.674;9.242;2022-10-30T08:40:50;17.30;66.30
21502;DHT22;27639;48.674;9.242;2022-10-30T08:43:15;17.50;66.30
21502;DHT22;27639;48.674;9.242;2022-10-30T08:45:41;17.70;65.90
21502;DHT22;27639;48.674;9.242;2022-10-30T08:48:12;17.70;65.20
21502;DHT22;27639;48.674;9.242;2022-10-30T08:50:38;17.90;65.40
21502;DHT22;27639;48.674;9.242;2022-10-30T08:53:10;18.00;65.20
21502;DHT22;27639;48.674;9.242;2022-10-30T08:55:36;18.20;65.30
21502;DHT22;27639;48.674;9.242;2022-10-30T08:58:01;18.30;65.50
21502;DHT22;27639;48.674;9.242;2022-10-30T09:00:28;18.40;65.10
21502;DHT22;27639;48.674;9.242;2022-10-30T09:02:53;18.60;65.10
21502;DHT22;27639;48.674;9.242;2022-10-30T09:05:20;18.80;64.70
21502;DHT22;27639;48.674;9.242;2022-10-30T09:07:45;18.90;64.40
21502;DHT22;27639;48.674;9.242;2022-10-30T09:10:11;19.10;64.20
21502;DHT22;27639;48.674;9.242;2022-10-30T09:12:37;19.20;63.90
21502;DHT22;27639;48.674;9.242;2022-10-30T09:15:03;19.30;63.70
21502;DHT22;27639;48.674;9.242;2022-10-30T09:17:29;19.50;63.60
21502;DHT22;27639;48.674;9.242;2022-10-30T09:19:55;19.60;64.00
21502;DHT22;27639;48.674;9.242;2022-10-30T09:22:20;19.70;63.80
21502;DHT22;27639;48.674;9.242;2022-10-30T09:24:46;19.90;63.50
21502;DHT22;27639;48.674;9.242;2022-10-30T09:27:12;20.10;63.50
21502;DHT22;27639;48.674;9.242;2022-10-30T09:29:37;20.20;64.00
21502;DHT22;27639;48.674;9.242;2022-10-30T09:32:03;20.40;63.10
21502;DHT22;27639;48.674;9.242;2022-10-30T09:34:33;20.50;62.90
21502;DHT22;27639;48.674;9.242;2022-10-30T09:36:58;20.70;62.60
21502;DHT22;27639;48.674;9.242;2022-10-30T09:39:24;20.80;62.30
21502;DHT22;27639;48.674;9.242;2022-10-30T09:50:49;21.40;60.90
21502;DHT22;27639;48.674;9.242;2022-10-30T09:53:32;21.60;61.00
21502;DHT22;27639;48.674;9.242;2022-10-30T09:56:26;21.70;60.80
21502;DHT22;27639;48.674;9.242;2022-10-30T10:01:53;22.00;60.00
21502;DHT22;27639;48.674;9.242;2022-10-30T10:06:56;22.40;59.10
21502;DHT22;27639;48.674;9.242;2022-10-30T10:09:24;22.50;58.80
21502;DHT22;27639;48.674;9.242;2022-10-30T10:12:05;22.60;58.50
21502;DHT22;27639;48.674;9.242;2022-10-30T10:14:34;22.60;58.10
21502;DHT22;27639;48.674;9.242;2022-10-30T10:17:03;22.60;58.40
21502;DHT22;27639;48.674;9.242;2022-10-30T10:24:43;22.40;58.90
21502;DHT22;27639;48.674;9.242;2022-10-30T10:30:20;22.60;58.70
21502;DHT22;27639;48.674;9.242;2022-10-30T10:32:51;22.60;58.70
21502;DHT22;27639;48.674;9.242;2022-10-30T10:38:27;22.90;58.30
21502;DHT22;27639;48.674;9.242;2022-10-30T10:41:24;23.00;58.30
21502;DHT22;27639;48.674;9.242;2022-10-30T10:44:32;23.20;58.10
21502;DHT22;27639;48.674;9.242;2022-10-30T10:50:20;23.30;58.20
21502;DHT22;27639;48.674;9.242;2022-10-30T10:52:55;23.50;57.60
21502;DHT22;27639;48.674;9.242;2022-10-30T10:55:26;23.60;57.30
21502;DHT22;27639;48.674;9.242;2022-10-30T10:57:55;23.70;57.60
21502;DHT22;27639;48.674;9.242;2022-10-30T11:00:22;23.80;57.30
21502;DHT22;27639;48.674;9.242;2022-10-30T11:03:14;23.90;57.00
21502;DHT22;27639;48.674;9.242;2022-10-30T11:06:10;23.90;56.70
21502;DHT22;27639;48.674;9.242;2022-10-30T11:08:39;24.00;56.60
21502;DHT22;27639;48.674;9.242;2022-10-30T11:11:06;24.00;56.30
21502;DHT22;27639;48.674;9.242;2022-10-30T11:13:36;24.10;55.80
21502;DHT22;27639;48.674;9.242;2022-10-30T11:16:26;24.20;55.50
21502;DHT22;27639;48.674;9.242;2022-10-30T11:18:59;24.30;55.70
21502;DHT22;27639;48.674;9.242;2022-10-30T11:21:29;24.40;55.00
21502;DHT22;27639;48.674;9.242;2022-10-30T11:23:56;24.40;55.40
21502;DHT22;27639;48.674;9.242;2022-10-30T11:29:00;24.60;55.30
21502;DHT22;27639;48.674;9.242;2022-10-30T11:36:47;24.70;55.00
21502;DHT22;27639;48.674;9.242;2022-10-30T11:39:26;24.80;55.00
21502;DHT22;27639;48.674;9.242;2022-10-30T11:42:13;24.70;54.80
21502;DHT22;27639;48.674;9.242;2022-10-30T11:44:42;24.80;54.90
21502;DHT22;27639;48.674;9.242;2022-10-30T11:47:10;24.90;54.80
21502;DHT22;27639;48.674;9.242;2022-10-30T11:49:40;24.90;54.60
21502;DHT22;27639;48.674;9.242;2022-10-30T11:52:07;24.90;54.30
21502;DHT22;27639;48.674;9.242;2022-10-30T11:54:39;25.00;54.20
21502;DHT22;27639;48.674;9.242;2022-10-30T11:57:23;25.00;54.50
21502;DHT22;27639;48.674;9.242;2022-10-30T11:59:53;25.00;54.40
21502;DHT22;27639;48.674;9.242;2022-10-30T12:02:26;25.00;54.50
21502;DHT22;27639;48.674;9.242;2022-10-30T12:04:53;25.10;54.20
21502;DHT22;27639;48.674;9.242;2022-10-30T12:09:47;25.10;53.90
21502;DHT22;27639;48.674;9.242;2022-10-30T12:12:37;25.20;54.20
21502;DHT22;27639;48.674;9.242;2022-10-30T12:15:24;25.10;53.80
21502;DHT22;27639;48.674;9.242;2022-10-30T12:18:01;25.20;54.10
21502;DHT22;27639;48.674;9.242;2022-10-30T12:20:27;25.20;54.20
21502;DHT22;27639;48.674;9.242;2022-10-30T12:22:54;25.20;54.10
21502;DHT22;27639;48.674;9.242;2022-10-30T12:25:27;25.30;54.00
21502;DHT22;27639;48.674;9.242;2022-10-30T12:30:26;25.20;54.20
21502;DHT22;27639;48.674;9.242;2022-10-30T12:33:03;25.30;54.00
21502;DHT22;27639;48.674;9.242;2022-10-30T12:35:51;25.40;53.80
21502;DHT22;27639;48.674;9.242;2022-10-30T12:38:32;25.50;53.50
21502;DHT22;27639;48.674;9.242;2022-10-30T12:41:20;25.40;53.50
21502;DHT22;27639;48.674;9.242;2022-10-30T12:44:22;25.50;54.10
21502;DHT22;27639;48.674;9.242;2022-10-30T12:49:56;25.60;53.60
21502;DHT22;27639;48.674;9.242;2022-10-30T12:52:59;25.60;53.30
21502;DHT22;27639;48.674;9.242;2022-10-30T12:55:50;25.70;53.40
21502;DHT22;27639;48.674;9.242;2022-10-30T12:59:16;25.60;53.10
21502;DHT22;27639;48.674;9.242;2022-10-30T13:01:26;25.70;53.10
21502;DHT22;27639;48.674;9.242;2022-10-30T13:04:15;25.60;53.10
21502;DHT22;27639;48.674;9.242;2022-10-30T13:07:04;25.50;52.90
21502;DHT22;27639;48.674;9.242;2022-10-30T13:12:13;25.60;53.10
21502;DHT22;27639;48.674;9.242;2022-10-30T13:14:48;25.60;52.80
21502;DHT22;27639;48.674;9.242;2022-10-30T13:17:16;25.70;52.90
21502;DHT22;27639;48.674;9.242;2022-10-30T13:19:44;25.70;52.80
21502;DHT22;27639;48.674;9.242;2022-10-30T13:27:50;25.70;52.80
21502;DHT22;27639;48.674;9.242;2022-10-30T13:30:23;25.70;52.40
21502;DHT22;27639;48.674;9.242;2022-10-30T13:33:14;25.70;52.40
21502;DHT22;27639;48.674;9.242;2022-10-30T13:35:55;25.60;51.90
21502;DHT22;27639;48.674;9.242;2022-10-30T13:41:10;25.70;51.60
21502;DHT22;27639;48.674;9.242;2022-10-30T13:43:57;25.80;51.80
21502;DHT22;27639;48.674;9.242;2022-10-30T13:52:04;25.90;51.60
21502;DHT22;27639;48.674;9.242;2022-10-30T13:54:35;26.00;52.40
21502;DHT22;27639;48.674;9.242;2022-10-30T13:57:28;26.10;52.20
21502;DHT22;27639;48.674;9.242;2022-10-30T14:08:41;26.20;52.00
21502;DHT22;27639;48.674;9.242;2022-10-30T14:11:11;26.30;52.10
21502;DHT22;27639;48.674;9.242;2022-10-30T14:26:50;26.30;53.30
21502;DHT22;27639;48.674;9.242;2022-10-30T14:31:57;26.20;53.70
21502;DHT22;27639;48.674;9.242;2022-10-30T14:37:07;26.10;53.60
21502;DHT22;27639;48.674;9.242;2022-10-30T14:39:43;26.10;54.20
21502;DHT22;27639;48.674;9.242;2022-10-30T14:42:28;26.00;54.20
21502;DHT22;27639;48.674;9.242;2022-10-30T14:58:31;25.50;55.40
21502;DHT22;27639;48.674;9.242;2022-10-30T15:16:48;25.10;55.80
21502;DHT22;27639;48.674;9.242;2022-10-30T15:19:15;25.10;55.90
21502;DHT22;27639;48.674;9.242;2022-10-30T15:21:43;25.00;56.10
21502;DHT22;27639;48.674;9.242;2022-10-30T15:24:16;24.90;56.30
21502;DHT22;27639;48.674;9.242;2022-10-30T15:26:48;24.80;56.30
21502;DHT22;27639;48.674;9.242;2022-10-30T15:29:20;24.70;56.40
21502;DHT22;27639;48.674;9.242;2022-10-30T15:31:56;24.60;56.60
21502;DHT22;27639;48.674;9.242;2022-10-30T15:34:26;24.40;56.50
21502;DHT22;27639;48.674;9.242;2022-10-30T15:36:51;24.40;56.70
21502;DHT22;27639;48.674;9.242;2022-10-30T15:39:18;24.30;56.80
21502;DHT22;27639;48.674;9.242;2022-10-30T15:41:52;24.20;56.80
21502;DHT22;27639;48.674;9.242;2022-10-30T15:46:56;24.10;56.90
21502;DHT22;27639;48.674;9.242;2022-10-30T15:49:37;24.00;57.20
21502;DHT22;27639;48.674;9.242;2022-10-30T15:52:24;23.90;57.10
21502;DHT22;27639;48.674;9.242;2022-10-30T15:54:57;23.70;57.10
21502;DHT22;27639;48.674;9.242;2022-10-30T15:57:31;23.60;57.50
21502;DHT22;27639;48.674;9.242;2022-10-30T16:00:03;23.50;57.60
21502;DHT22;27639;48.674;9.242;2022-10-30T16:02:30;23.30;57.70
21502;DHT22;27639;48.674;9.242;2022-10-30T16:04:56;23.30;58.10
21502;DHT22;27639;48.674;9.242;2022-10-30T16:07:27;23.20;58.10
21502;DHT22;27639;48.674;9.242;2022-10-30T16:09:55;23.20;58.00
21502;DHT22;27639;48.674;9.242;2022-10-30T16:12:25;23.10;58.10
21502;DHT22;27639;48.674;9.242;2022-10-30T16:14:55;22.90;58.00
21502;DHT22;27639;48.674;9.242;2022-10-30T16:17:25;22.80;58.30
21502;DHT22;27639;48.674;9.242;2022-10-30T16:19:54;22.70;58.30
21502;DHT22;27639;48.674;9.242;2022-10-30T16:22:25;22.50;58.50
21502;DHT22;27639;48.674;9.242;2022-10-30T16:24:52;22.40;58.70
21502;DHT22;27639;48.674;9.242;2022-10-30T16:27:19;22.40;58.90
21502;DHT22;27639;48.674;9.242;2022-10-30T16:29:48;22.30;59.00
21502;DHT22;27639;48.674;9.242;2022-10-30T16:32:17;22.30;59.10
21502;DHT22;27639;48.674;9.242;2022-10-30T16:34:44;22.20;59.10
21502;DHT22;27639;48.674;9.242;2022-10-30T16:37:23;22.10;59.30
21502;DHT22;27639;48.674;9.242;2022-10-30T16:39:50;22.00;59.10
21502;DHT22;27639;48.674;9.242;2022-10-30T16:42:24;21.90;59.40
21502;DHT22;27639;48.674;9.242;2022-10-30T16:44:52;21.80;59.40
21502;DHT22;27639;48.674;9.242;2022-10-30T16:47:28;21.80;59.70
21502;DHT22;27639;48.674;9.242;2022-10-30T16:49:56;21.70;59.70
21502;DHT22;27639;48.674;9.242;2022-10-30T16:52:30;21.60;59.70
21502;DHT22;27639;48.674;9.242;2022-10-30T16:55:00;21.50;59.60
21502;DHT22;27639;48.674;9.242;2022-10-30T16:57:28;21.50;59.60
21502;DHT22;27639;48.674;9.242;2022-10-30T16:59:55;21.40;59.60
21502;DHT22;27639;48.674;9.242;2022-10-30T17:02:30;21.40;59.60
21502;DHT22;27639;48.674;9.242;2022-10-30T17:05:22;21.40;59.60
21502;DHT22;27639;48.674;9.242;2022-10-30T17:08:01;21.40;59.60
21502;DHT22;27639;48.674;9.242;2022-10-30T17:10:41;21.30;59.50
21502;DHT22;27639;48.674;9.242;2022-10-30T17:13:35;21.30;59.80
21502;DHT22;27639;48.674;9.242;2022-10-30T17:18:38;21.10;59.70
21502;DHT22;27639;48.674;9.242;2022-10-30T17:21:08;21.00;59.90
21502;DHT22;27639;48.674;9.242;2022-10-30T17:23:35;21.00;59.90
21502;DHT22;27639;48.674;9.242;2022-10-30T17:26:07;20.90;60.00
21502;DHT22;27639;48.674;9.242;2022-10-30T17:28:34;20.90;60.00
21502;DHT22;27639;48.674;9.242;2022-10-30T17:34:18;20.70;59.90
21502;DHT22;27639;48.674;9.242;2022-10-30T17:36:46;20.60;60.00
21502;DHT22;27639;48.674;9.242;2022-10-30T17:39:12;20.50;60.40
21502;DHT22;27639;48.674;9.242;2022-10-30T17:41:38;20.50;60.60
21502;DHT22;27639;48.674;9.242;2022-10-30T17:44:05;20.50;60.60
21502;DHT22;27639;48.674;9.242;2022-10-30T17:46:31;20.40;60.70
21502;DHT22;27639;48.674;9.242;2022-10-30T17:48:57;20.30;60.70
21502;DHT22;27639;48.674;9.242;2022-10-30T17:51:26;20.30;61.00
21502;DHT22;27639;48.674;9.242;2022-10-30T17:53:53;20.30;61.20
21502;DHT22;27639;48.674;9.242;2022-10-30T17:56:22;20.30;61.10
21502;DHT22;27639;48.674;9.242;2022-10-30T17:58:49;20.20;61.00
21502;DHT22;27639;48.674;9.242;2022-10-30T18:01:22;20.20;61.10
21502;DHT22;27639;48.674;9.242;2022-10-30T18:03:50;20.20;60.90
21502;DHT22;27639;48.674;9.242;2022-10-30T18:06:19;20.10;61.10
21502;DHT22;27639;48.674;9.242;2022-10-30T18:08:45;20.10;61.10
21502;DHT22;27639;48.674;9.242;2022-10-30T18:11:13;20.00;61.10
21502;DHT22;27639;48.674;9.242;2022-10-30T18:13:39;20.00;61.20
21502;DHT22;27639;48.674;9.242;2022-10-30T18:16:07;19.90;61.30
21502;DHT22;27639;48.674;9.242;2022-10-30T18:18:33;19.90;61.50
21502;DHT22;27639;48.674;9.242;2022-10-30T18:20:59;19.80;61.50
21502;DHT22;27639;48.674;9.242;2022-10-30T18:23:25;19.80;61.40
21502;DHT22;27639;48.674;9.242;2022-10-30T18:25:51;19.90;61.60